sensor_id;sensor_type;location;lat;lon;timestamp;temperature;humidity
50544;DHT22;41176;44.032;20.900;2023-09-08T00:00:57;18.90;99.90
50544;DHT22;41176;44.032;20.900;2023-09-08T00:03:23;18.70;99.90
50544;DHT22;41176;44.032;20.900;2023-09-08T00:05:49;18.60;99.90
50544;DHT22;41176;44.032;20.900;2023-09-08T00:08:14;18.50;99.90
50544;DHT22;41176;44.032;20.900;2023-09-08T00:10:40;18.50;99.90
50544;DHT22;41176;44.032;20.900;2023-09-08T00:13:06;18.40;99.90
50544;DHT22;41176;44.032;20.900;2023-09-08T00:15:36;18.30;99.90
50544;DHT22;41176;44.032;20.900;2023-09-08T00:18:02;18.30;99.90
50544;DHT22;41176;44.032;20.900;2023-09-08T00:20:28;18.20;99.90
50544;DHT22;41176;44.032;20.900;2023-09-08T00:22:54;18.30;99.90
50544;DHT22;41176;44.032;20.900;2023-09-08T00:25:20;18.30;99.90
50544;DHT22;41176;44.032;20.900;2023-09-08T00:27:45;18.40;99.90
50544;DHT22;41176;44.032;20.900;2023-09-08T00:30:11;18.50;99.90
50544;DHT22;41176;44.032;20.900;2023-09-08T00:32:37;18.50;99.90
50544;DHT22;41176;44.032;20.900;2023-09-08T00:35:06;18.60;99.90
50544;DHT22;41176;44.032;20.900;2023-09-08T00:37:31;18.60;99.90
50544;DHT22;41176;44.032;20.900;2023-09-08T00:39:57;18.60;99.90
50544;DHT22;41176;44.032;20.900;2023-09-08T00:42:23;18.60;99.90
50544;DHT22;41176;44.032;20.900;2023-09-08T00:44:48;18.60;99.90
50544;DHT22;41176;44.032;20.900;2023-09-08T00:47:15;18.60;99.90
50544;DHT22;41176;44.032;20.900;2023-09-08T00:49:41;18.60;99.90
50544;DHT22;41176;44.032;20.900;2023-09-08T00:52:06;18.60;99.90
50544;DHT22;41176;44.032;20.900;2023-09-08T00:54:32;18.70;99.90
50544;DHT22;41176;44.032;20.900;2023-09-08T00:56:58;18.60;99.90
50544;DHT22;41176;44.032;20.900;2023-09-08T00:59:27;18.50;99.90
50544;DHT22;41176;44.032;20.900;2023-09-08T01:01:53;18.30;99.90
50544;DHT22;41176;44.032;20.900;2023-09-08T01:04:18;18.30;99.90
50544;DHT22;41176;44.032;20.900;2023-09-08T01:06:45;18.10;99.90
50544;DHT22;41176;44.032;20.900;2023-09-08T01:09:11;18.20;99.90
50544;DHT22;41176;44.032;20.900;2023-09-08T01:11:37;18.30;99.90
50544;DHT22;41176;44.032;20.900;2023-09-08T01:14:03;18.30;99.90
50544;DHT22;41176;44.032;20.900;2023-09-08T01:16:29;18.30;99.90
50544;DHT22;41176;44.032;20.900;2023-09-08T01:18:56;18.30;99.90
50544;DHT22;41176;44.032;20.900;2023-09-08T01:21:46;18.30;99.90
50544;DHT22;41176;44.032;20.900;2023-09-08T01:27:12;18.10;99.90
50544;DHT22;41176;44.032;20.900;2023-09-08T01:29:40;18.00;99.90
50544;DHT22;41176;44.032;20.900;2023-09-08T01:32:07;17.90;99.90
50544;DHT22;41176;44.032;20.900;2023-09-08T01:34:34;17.80;99.90
50544;DHT22;41176;44.032;20.900;2023-09-08T01:37:02;17.70;99.90
50544;DHT22;41176;44.032;20.900;2023-09-08T01:39:29;17.70;99.90
50544;DHT22;41176;44.032;20.900;2023-09-08T01:41:55;17.80;99.90
50544;DHT22;41176;44.032;20.900;2023-09-08T01:44:21;17.70;99.90
50544;DHT22;41176;44.032;20.900;2023-09-08T01:46:46;17.70;99.90
50544;DHT22;41176;44.032;20.900;2023-09-08T01:49:12;17.70;99.90
50544;DHT22;41176;44.032;20.900;2023-09-08T01:51:38;17.80;99.90
50544;DHT22;41176;44.032;20.900;2023-09-08T01:54:03;17.80;99.90
50544;DHT22;41176;44.032;20.900;2023-09-08T01:56:29;17.90;99.90
50544;DHT22;41176;44.032;20.900;2023-09-08T01:58:55;17.90;99.90
50544;DHT22;41176;44.032;20.900;2023-09-08T02:01:21;17.90;99.90
50544;DHT22;41176;44.032;20.900;2023-09-08T02:03:46;17.90;99.90
50544;DHT22;41176;44.032;20.900;2023-09-08T02:06:12;17.90;99.90
50544;DHT22;41176;44.032;20.900;2023-09-08T02:08:38;17.90;99.90
50544;DHT22;41176;44.032;20.900;2023-09-08T02:11:03;17.90;99.90
50544;DHT22;41176;44.032;20.900;2023-09-08T02:13:29;17.90;99.90
50544;DHT22;41176;44.032;20.900;2023-09-08T02:15:55;17.90;99.90
50544;DHT22;41176;44.032;20.900;2023-09-08T02:18:20;17.90;99.90
50544;DHT22;41176;44.032;20.900;2023-09-08T02:20:46;17.80;99.90
50544;DHT22;41176;44.032;20.900;2023-09-08T02:23:12;17.80;99.90
50544;DHT22;41176;44.032;20.900;2023-09-08T02:25:37;17.80;99.90
50544;DHT22;41176;44.032;20.900;2023-09-08T02:28:03;17.80;99.90
50544;DHT22;41176;44.032;20.900;2023-09-08T02:30:29;17.70;99.90
50544;DHT22;41176;44.032;20.900;2023-09-08T02:32:55;17.60;99.90
50544;DHT22;41176;44.032;20.900;2023-09-08T02:35:23;17.50;99.90
50544;DHT22;41176;44.032;20.900;2023-09-08T02:37:48;17.40;99.90
50544;DHT22;41176;44.032;20.900;2023-09-08T02:40:14;17.30;99.90
50544;DHT22;41176;44.032;20.900;2023-09-08T02:42:40;17.20;99.90
50544;DHT22;41176;44.032;20.900;2023-09-08T02:45:06;17.20;99.90
50544;DHT22;41176;44.032;20.900;2023-09-08T02:47:32;17.20;99.90
50544;DHT22;41176;44.032;20.900;2023-09-08T02:49:58;17.20;99.90
50544;DHT22;41176;44.032;20.900;2023-09-08T02:52:23;17.20;99.90
50544;DHT22;41176;44.032;20.900;2023-09-08T02:54:49;17.20;99.90
50544;DHT22;41176;44.032;20.900;2023-09-08T02:57:15;17.00;99.90
50544;DHT22;41176;44.032;20.900;2023-09-08T02:59:40;17.10;99.90
50544;DHT22;41176;44.032;20.900;2023-09-08T03:02:06;17.00;99.90
50544;DHT22;41176;44.032;20.900;2023-09-08T03:04:32;17.10;99.90
50544;DHT22;41176;44.032;20.900;2023-09-08T03:06:57;17.00;99.90
50544;DHT22;41176;44.032;20.900;2023-09-08T03:09:24;16.90;99.90
50544;DHT22;41176;44.032;20.900;2023-09-08T03:11:49;16.80;99.90
50544;DHT22;41176;44.032;20.900;2023-09-08T03:14:15;16.70;99.90
50544;DHT22;41176;44.032;20.900;2023-09-08T03:16:41;16.70;99.90
50544;DHT22;41176;44.032;20.900;2023-09-08T03:19:06;16.70;99.90
50544;DHT22;41176;44.032;20.900;2023-09-08T03:21:32;16.60;99.90
50544;DHT22;41176;44.032;20.900;2023-09-08T03:23:58;16.70;99.90
50544;DHT22;41176;44.032;20.900;2023-09-08T03:26:23;16.70;99.90
50544;DHT22;41176;44.032;20.900;2023-09-08T03:28:49;16.80;99.90
50544;DHT22;41176;44.032;20.900;2023-09-08T03:31:15;16.80;99.90
50544;DHT22;41176;44.032;20.900;2023-09-08T03:33:40;16.80;99.90
50544;DHT22;41176;44.032;20.900;2023-09-08T03:36:07;16.80;99.90
50544;DHT22;41176;44.032;20.900;2023-09-08T03:38:33;16.80;99.90
50544;DHT22;41176;44.032;20.900;2023-09-08T03:40:59;16.70;99.90
50544;DHT22;41176;44.032;20.900;2023-09-08T03:43:25;16.70;99.90
50544;DHT22;41176;44.032;20.900;2023-09-08T03:45:50;16.70;99.90
50544;DHT22;41176;44.032;20.900;2023-09-08T03:48:16;16.70;99.90
50544;DHT22;41176;44.032;20.900;2023-09-08T03:50:42;16.80;99.90
50544;DHT22;41176;44.032;20.900;2023-09-08T03:53:11;16.80;99.90
50544;DHT22;41176;44.032;20.900;2023-09-08T03:55:37;16.90;99.90
50544;DHT22;41176;44.032;20.900;2023-09-08T03:58:02;16.80;99.90
50544;DHT22;41176;44.032;20.900;2023-09-08T04:00:28;16.80;99.90
50544;DHT22;41176;44.032;20.900;2023-09-08T04:02:54;16.80;99.90
50544;DHT22;41176;44.032;20.900;2023-09-08T04:05:20;16.80;99.90
50544;DHT22;41176;44.032;20.900;2023-09-08T04:07:46;16.80;99.90
50544;DHT22;41176;44.032;20.900;2023-09-08T04:10:12;16.70;99.90
50544;DHT22;41176;44.032;20.900;2023-09-08T04:12:39;16.70;99.90
50544;DHT22;41176;44.032;20.900;2023-09-08T04:15:05;16.60;99.90
50544;DHT22;41176;44.032;20.900;2023-09-08T04:17:31;16.70;99.90
50544;DHT22;41176;44.032;20.900;2023-09-08T04:19:57;16.70;99.90
50544;DHT22;41176;44.032;20.900;2023-09-08T04:22:23;16.70;99.90
50544;DHT22;41176;44.032;20.900;2023-09-08T04:24:48;16.70;99.90
50544;DHT22;41176;44.032;20.900;2023-09-08T04:27:14;16.70;99.90
50544;DHT22;41176;44.032;20.900;2023-09-08T04:29:40;16.70;99.90
50544;DHT22;41176;44.032;20.900;2023-09-08T04:32:05;16.60;99.90
50544;DHT22;41176;44.032;20.900;2023-09-08T04:34:38;16.60;99.90
50544;DHT22;41176;44.032;20.900;2023-09-08T04:37:04;16.50;99.90
50544;DHT22;41176;44.032;20.900;2023-09-08T04:39:30;16.40;99.90
50544;DHT22;41176;44.032;20.900;2023-09-08T04:41:55;16.40;99.90
50544;DHT22;41176;44.032;20.900;2023-09-08T04:44:21;16.40;99.90
50544;DHT22;41176;44.032;20.900;2023-09-08T04:46:47;16.40;99.90
50544;DHT22;41176;44.032;20.900;2023-09-08T04:49:13;16.40;99.90
50544;DHT22;41176;44.032;20.900;2023-09-08T04:51:39;16.30;99.90
50544;DHT22;41176;44.032;20.900;2023-09-08T04:54:04;16.30;99.90
50544;DHT22;41176;44.032;20.900;2023-09-08T04:56:30;16.30;99.90
50544;DHT22;41176;44.032;20.900;2023-09-08T04:58:56;16.40;99.90
50544;DHT22;41176;44.032;20.900;2023-09-08T05:01:23;16.40;99.90
50544;DHT22;41176;44.032;20.900;2023-09-08T05:03:49;16.50;99.90
50544;DHT22;41176;44.032;20.900;2023-09-08T05:06:14;16.40;99.90
50544;DHT22;41176;44.032;20.900;2023-09-08T05:08:40;16.50;99.90
50544;DHT22;41176;44.032;20.900;2023-09-08T05:11:06;16.60;99.90
50544;DHT22;41176;44.032;20.900;2023-09-08T05:13:32;16.70;99.90
50544;DHT22;41176;44.032;20.900;2023-09-08T05:15:57;16.60;99.90
50544;DHT22;41176;44.032;20.900;2023-09-08T05:18:26;16.60;99.90
50544;DHT22;41176;44.032;20.900;2023-09-08T05:20:52;16.50;99.90
50544;DHT22;41176;44.032;20.900;2023-09-08T05:23:18;16.60;99.90
50544;DHT22;41176;44.032;20.900;2023-09-08T05:25:45;16.60;99.90
50544;DHT22;41176;44.032;20.900;2023-09-08T05:28:10;16.60;99.90
50544;DHT22;41176;44.032;20.900;2023-09-08T05:30:36;16.80;99.90
50544;DHT22;41176;44.032;20.900;2023-09-08T05:33:02;16.90;99.90
50544;DHT22;41176;44.032;20.900;2023-09-08T05:35:28;17.00;99.90
50544;DHT22;41176;44.032;20.900;2023-09-08T05:37:53;17.10;99.90
50544;DHT22;41176;44.032;20.900;2023-09-08T05:40:19;17.00;99.90
50544;DHT22;41176;44.032;20.900;2023-09-08T05:42:46;17.10;99.90
50544;DHT22;41176;44.032;20.900;2023-09-08T05:45:12;17.20;99.90
50544;DHT22;41176;44.032;20.900;2023-09-08T05:47:38;17.30;99.90
50544;DHT22;41176;44.032;20.900;2023-09-08T05:50:04;17.30;99.90
50544;DHT22;41176;44.032;20.900;2023-09-08T05:52:30;17.40;99.90
50544;DHT22;41176;44.032;20.900;2023-09-08T05:54:58;17.50;99.90
50544;DHT22;41176;44.032;20.900;2023-09-08T05:57:24;17.60;99.90
50544;DHT22;41176;44.032;20.900;2023-09-08T05:59:50;17.60;99.90
50544;DHT22;41176;44.032;20.900;2023-09-08T06:02:15;17.70;99.90
50544;DHT22;41176;44.032;20.900;2023-09-08T06:04:41;17.70;99.90
50544;DHT22;41176;44.032;20.900;2023-09-08T06:07:07;17.90;99.90
50544;DHT22;41176;44.032;20.900;2023-09-08T06:09:32;18.10;99.90
50544;DHT22;41176;44.032;20.900;2023-09-08T06:11:58;18.20;99.90
50544;DHT22;41176;44.032;20.900;2023-09-08T06:14:24;18.30;99.90
50544;DHT22;41176;44.032;20.900;2023-09-08T06:16:50;18.50;99.90
50544;DHT22;41176;44.032;20.900;2023-09-08T06:19:15;18.60;99.90
50544;DHT22;41176;44.032;20.900;2023-09-08T06:21:41;18.60;99.90
50544;DHT22;41176;44.032;20.900;2023-09-08T06:24:07;18.80;99.90
50544;DHT22;41176;44.032;20.900;2023-09-08T06:26:33;18.90;99.90
50544;DHT22;41176;44.032;20.900;2023-09-08T06:28:58;19.00;99.90
50544;DHT22;41176;44.032;20.900;2023-09-08T06:31:24;19.10;99.90
50544;DHT22;41176;44.032;20.900;2023-09-08T06:33:50;19.20;99.90
50544;DHT22;41176;44.032;20.900;2023-09-08T06:36:18;19.30;99.90
50544;DHT22;41176;44.032;20.900;2023-09-08T06:38:44;19.40;99.90
50544;DHT22;41176;44.032;20.900;2023-09-08T06:41:11;19.50;99.90
50544;DHT22;41176;44.032;20.900;2023-09-08T06:43:37;19.60;99.90
50544;DHT22;41176;44.032;20.900;2023-09-08T06:46:03;19.80;99.90
50544;DHT22;41176;44.032;20.900;2023-09-08T06:48:29;19.90;99.90
50544;DHT22;41176;44.032;20.900;2023-09-08T06:50:55;20.10;99.90
50544;DHT22;41176;44.032;20.900;2023-09-08T06:53:24;20.20;99.90
50544;DHT22;41176;44.032;20.900;2023-09-08T06:55:50;20.30;99.90
50544;DHT22;41176;44.032;20.900;2023-09-08T06:58:16;20.40;99.90
50544;DHT22;41176;44.032;20.900;2023-09-08T07:00:42;20.60;99.90
50544;DHT22;41176;44.032;20.900;2023-09-08T07:03:08;20.70;99.90
50544;DHT22;41176;44.032;20.900;2023-09-08T07:05:34;20.80;99.90
50544;DHT22;41176;44.032;20.900;2023-09-08T07:08:00;21.00;99.90
50544;DHT22;41176;44.032;20.900;2023-09-08T07:10:26;21.10;99.40
50544;DHT22;41176;44.032;20.900;2023-09-08T07:12:51;21.20;99.70
50544;DHT22;41176;44.032;20.900;2023-09-08T07:15:17;21.40;99.10
50544;DHT22;41176;44.032;20.900;2023-09-08T07:17:43;21.50;99.80
50544;DHT22;41176;44.032;20.900;2023-09-08T07:20:09;21.70;99.50
50544;DHT22;41176;44.032;20.900;2023-09-08T07:22:35;21.90;98.50
50544;DHT22;41176;44.032;20.900;2023-09-08T07:25:01;22.00;97.90
50544;DHT22;41176;44.032;20.900;2023-09-08T07:27:26;22.10;98.00
50544;DHT22;41176;44.032;20.900;2023-09-08T07:29:52;22.30;97.50
50544;DHT22;41176;44.032;20.900;2023-09-08T07:32:18;22.50;96.70
50544;DHT22;41176;44.032;20.900;2023-09-08T07:34:44;22.60;95.90
50544;DHT22;41176;44.032;20.900;2023-09-08T07:37:10;22.80;94.80
50544;DHT22;41176;44.032;20.900;2023-09-08T07:39:35;22.90;93.30
50544;DHT22;41176;44.032;20.900;2023-09-08T07:42:02;23.10;92.80
50544;DHT22;41176;44.032;20.900;2023-09-08T07:44:28;23.30;91.80
50544;DHT22;41176;44.032;20.900;2023-09-08T07:46:54;23.40;91.50
50544;DHT22;41176;44.032;20.900;2023-09-08T07:49:21;23.50;91.20
50544;DHT22;41176;44.032;20.900;2023-09-08T07:51:47;23.60;90.70
50544;DHT22;41176;44.032;20.900;2023-09-08T07:54:13;23.80;89.10
50544;DHT22;41176;44.032;20.900;2023-09-08T07:56:39;23.90;89.50
50544;DHT22;41176;44.032;20.900;2023-09-08T07:59:07;24.00;86.80
50544;DHT22;41176;44.032;20.900;2023-09-08T08:01:32;24.10;86.60
50544;DHT22;41176;44.032;20.900;2023-09-08T08:03:58;24.30;87.30
50544;DHT22;41176;44.032;20.900;2023-09-08T08:06:24;24.40;85.90
50544;DHT22;41176;44.032;20.900;2023-09-08T08:08:50;24.50;84.60
50544;DHT22;41176;44.032;20.900;2023-09-08T08:11:16;24.70;83.70
50544;DHT22;41176;44.032;20.900;2023-09-08T08:13:45;24.80;83.60
50544;DHT22;41176;44.032;20.900;2023-09-08T08:16:11;24.90;83.30
50544;DHT22;41176;44.032;20.900;2023-09-08T08:18:37;25.10;82.70
50544;DHT22;41176;44.032;20.900;2023-09-08T08:21:03;25.10;81.40
50544;DHT22;41176;44.032;20.900;2023-09-08T08:23:29;25.20;81.20
50544;DHT22;41176;44.032;20.900;2023-09-08T08:25:56;25.40;79.90
50544;DHT22;41176;44.032;20.900;2023-09-08T08:28:22;25.50;78.40
50544;DHT22;41176;44.032;20.900;2023-09-08T08:30:50;25.60;78.50
50544;DHT22;41176;44.032;20.900;2023-09-08T08:33:15;25.60;79.40
50544;DHT22;41176;44.032;20.900;2023-09-08T08:35:41;25.70;78.80
50544;DHT22;41176;44.032;20.900;2023-09-08T08:38:07;25.80;79.40
50544;DHT22;41176;44.032;20.900;2023-09-08T08:40:33;25.90;78.10
50544;DHT22;41176;44.032;20.900;2023-09-08T08:43:00;25.90;77.50
50544;DHT22;41176;44.032;20.900;2023-09-08T08:45:26;26.00;76.70
50544;DHT22;41176;44.032;20.900;2023-09-08T08:47:52;26.10;76.00
50544;DHT22;41176;44.032;20.900;2023-09-08T08:50:19;26.20;75.00
50544;DHT22;41176;44.032;20.900;2023-09-08T08:52:45;26.30;75.60
50544;DHT22;41176;44.032;20.900;2023-09-08T08:55:12;26.40;73.50
50544;DHT22;41176;44.032;20.900;2023-09-08T08:57:40;26.30;72.60
50544;DHT22;41176;44.032;20.900;2023-09-08T09:00:11;26.50;73.60
50544;DHT22;41176;44.032;20.900;2023-09-08T09:02:40;26.60;74.10
50544;DHT22;41176;44.032;20.900;2023-09-08T09:05:11;26.70;71.60
50544;DHT22;41176;44.032;20.900;2023-09-08T09:07:41;26.80;72.40
50544;DHT22;41176;44.032;20.900;2023-09-08T09:10:08;26.90;71.30
50544;DHT22;41176;44.032;20.900;2023-09-08T09:12:39;27.00;70.20
50544;DHT22;41176;44.032;20.900;2023-09-08T09:15:05;27.20;70.10
50544;DHT22;41176;44.032;20.900;2023-09-08T09:17:35;27.20;66.40
50544;DHT22;41176;44.032;20.900;2023-09-08T09:22:40;27.20;67.90
50544;DHT22;41176;44.032;20.900;2023-09-08T09:25:06;27.30;68.30
50544;DHT22;41176;44.032;20.900;2023-09-08T09:27:33;27.40;67.50
50544;DHT22;41176;44.032;20.900;2023-09-08T09:30:10;27.50;67.30
50544;DHT22;41176;44.032;20.900;2023-09-08T09:32:36;27.60;66.90
50544;DHT22;41176;44.032;20.900;2023-09-08T09:35:02;27.70;65.80
50544;DHT22;41176;44.032;20.900;2023-09-08T09:37:29;27.90;67.00
50544;DHT22;41176;44.032;20.900;2023-09-08T09:39:55;27.90;65.10
50544;DHT22;41176;44.032;20.900;2023-09-08T09:42:21;28.00;65.50
50544;DHT22;41176;44.032;20.900;2023-09-08T09:44:48;28.00;64.80
50544;DHT22;41176;44.032;20.900;2023-09-08T09:47:14;28.10;65.00
50544;DHT22;41176;44.032;20.900;2023-09-08T09:49:42;28.10;64.30
50544;DHT22;41176;44.032;20.900;2023-09-08T09:52:08;28.20;63.90
50544;DHT22;41176;44.032;20.900;2023-09-08T09:54:34;28.30;64.10
50544;DHT22;41176;44.032;20.900;2023-09-08T09:57:00;28.20;62.80
50544;DHT22;41176;44.032;20.900;2023-09-08T09:59:27;28.30;62.80
50544;DHT22;41176;44.032;20.900;2023-09-08T10:01:53;28.30;62.30
50544;DHT22;41176;44.032;20.900;2023-09-08T10:04:19;28.30;62.50
50544;DHT22;41176;44.032;20.900;2023-09-08T10:06:46;28.30;62.00
50544;DHT22;41176;44.032;20.900;2023-09-08T10:09:12;28.40;62.20
50544;DHT22;41176;44.032;20.900;2023-09-08T10:11:49;28.40;62.10
50544;DHT22;41176;44.032;20.900;2023-09-08T10:14:16;28.50;61.20
50544;DHT22;41176;44.032;20.900;2023-09-08T10:16:44;28.60;62.10
50544;DHT22;41176;44.032;20.900;2023-09-08T10:19:11;28.60;60.60
50544;DHT22;41176;44.032;20.900;2023-09-08T10:21:41;28.70;60.50
50544;DHT22;41176;44.032;20.900;2023-09-08T10:24:27;28.70;61.60
50544;DHT22;41176;44.032;20.900;2023-09-08T10:27:10;28.80;61.10
50544;DHT22;41176;44.032;20.900;2023-09-08T10:29:36;28.80;59.10
50544;DHT22;41176;44.032;20.900;2023-09-08T10:32:04;28.60;60.20
50544;DHT22;41176;44.032;20.900;2023-09-08T10:34:31;28.70;59.30
50544;DHT22;41176;44.032;20.900;2023-09-08T10:36:58;28.80;60.60
50544;DHT22;41176;44.032;20.900;2023-09-08T10:39:35;28.90;58.80
50544;DHT22;41176;44.032;20.900;2023-09-08T10:47:13;29.20;61.30
50544;DHT22;41176;44.032;20.900;2023-09-08T10:49:40;29.40;61.10
50544;DHT22;41176;44.032;20.900;2023-09-08T10:52:10;29.50;59.70
50544;DHT22;41176;44.032;20.900;2023-09-08T10:54:43;29.50;60.20
50544;DHT22;41176;44.032;20.900;2023-09-08T10:57:14;29.50;60.90
50544;DHT22;41176;44.032;20.900;2023-09-08T10:59:45;29.50;60.00
50544;DHT22;41176;44.032;20.900;2023-09-08T11:02:33;29.40;59.70
50544;DHT22;41176;44.032;20.900;2023-09-08T11:04:59;29.40;58.90
50544;DHT22;41176;44.032;20.900;2023-09-08T11:07:25;29.40;56.30
50544;DHT22;41176;44.032;20.900;2023-09-08T11:09:51;29.20;56.60
50544;DHT22;41176;44.032;20.900;2023-09-08T11:12:17;29.20;59.40
50544;DHT22;41176;44.032;20.900;2023-09-08T11:14:45;29.20;59.30
50544;DHT22;41176;44.032;20.900;2023-09-08T11:17:11;29.40;58.80
50544;DHT22;41176;44.032;20.900;2023-09-08T11:19:50;29.40;58.90
50544;DHT22;41176;44.032;20.900;2023-09-08T11:22:16;29.30;57.90
50544;DHT22;41176;44.032;20.900;2023-09-08T11:24:43;29.20;57.80
50544;DHT22;41176;44.032;20.900;2023-09-08T11:27:10;29.20;59.30
50544;DHT22;41176;44.032;20.900;2023-09-08T11:29:36;29.20;59.10
50544;DHT22;41176;44.032;20.900;2023-09-08T11:32:02;29.20;59.30
50544;DHT22;41176;44.032;20.900;2023-09-08T11:34:31;29.10;58.80
50544;DHT22;41176;44.032;20.900;2023-09-08T11:36:57;29.10;58.90
50544;DHT22;41176;44.032;20.900;2023-09-08T11:39:25;29.20;57.20
50544;DHT22;41176;44.032;20.900;2023-09-08T11:41:52;29.40;56.30
50544;DHT22;41176;44.032;20.900;2023-09-08T11:44:18;29.50;55.80
50544;DHT22;41176;44.032;20.900;2023-09-08T11:46:45;29.70;56.60
50544;DHT22;41176;44.032;20.900;2023-09-08T11:49:12;29.80;56.80
50544;DHT22;41176;44.032;20.900;2023-09-08T11:51:37;29.80;56.30
50544;DHT22;41176;44.032;20.900;2023-09-08T11:54:03;30.00;55.70
50544;DHT22;41176;44.032;20.900;2023-09-08T11:56:29;30.10;55.00
50544;DHT22;41176;44.032;20.900;2023-09-08T11:58:57;29.90;53.40
50544;DHT22;41176;44.032;20.900;2023-09-08T12:01:23;30.00;55.30
50544;DHT22;41176;44.032;20.900;2023-09-08T12:03:55;30.10;57.30
50544;DHT22;41176;44.032;20.900;2023-09-08T12:06:27;30.20;56.50
50544;DHT22;41176;44.032;20.900;2023-09-08T12:08:56;30.30;56.60
50544;DHT22;41176;44.032;20.900;2023-09-08T12:11:35;30.40;54.20
50544;DHT22;41176;44.032;20.900;2023-09-08T12:14:07;30.60;55.40
50544;DHT22;41176;44.032;20.900;2023-09-08T12:16:34;30.70;56.20
50544;DHT22;41176;44.032;20.900;2023-09-08T12:18:59;30.80;55.60
50544;DHT22;41176;44.032;20.900;2023-09-08T12:21:25;30.80;56.00
50544;DHT22;41176;44.032;20.900;2023-09-08T12:23:52;30.90;55.00
50544;DHT22;41176;44.032;20.900;2023-09-08T12:26:18;31.00;55.20
50544;DHT22;41176;44.032;20.900;2023-09-08T12:28:45;31.00;54.70
50544;DHT22;41176;44.032;20.900;2023-09-08T12:31:13;31.00;54.60
50544;DHT22;41176;44.032;20.900;2023-09-08T12:33:42;30.90;53.90
50544;DHT22;41176;44.032;20.900;2023-09-08T12:36:13;30.70;53.00
50544;DHT22;41176;44.032;20.900;2023-09-08T12:38:40;30.60;54.10
50544;DHT22;41176;44.032;20.900;2023-09-08T12:41:06;30.60;54.40
50544;DHT22;41176;44.032;20.900;2023-09-08T12:43:32;30.50;53.90
50544;DHT22;41176;44.032;20.900;2023-09-08T12:45:57;30.40;54.10
50544;DHT22;41176;44.032;20.900;2023-09-08T12:48:23;30.40;54.30
50544;DHT22;41176;44.032;20.900;2023-09-08T12:50:49;30.50;54.90
50544;DHT22;41176;44.032;20.900;2023-09-08T12:53:16;30.60;54.10
50544;DHT22;41176;44.032;20.900;2023-09-08T12:55:43;30.70;54.10
50544;DHT22;41176;44.032;20.900;2023-09-08T12:58:09;30.90;54.10
50544;DHT22;41176;44.032;20.900;2023-09-08T13:00:35;31.00;53.50
50544;DHT22;41176;44.032;20.900;2023-09-08T13:03:01;31.00;52.90
50544;DHT22;41176;44.032;20.900;2023-09-08T13:05:27;30.80;52.50
50544;DHT22;41176;44.032;20.900;2023-09-08T13:07:53;30.60;53.00
50544;DHT22;41176;44.032;20.900;2023-09-08T13:10:19;30.30;53.20
50544;DHT22;41176;44.032;20.900;2023-09-08T13:12:45;30.20;54.00
50544;DHT22;41176;44.032;20.900;2023-09-08T13:15:11;30.30;54.30
50544;DHT22;41176;44.032;20.900;2023-09-08T13:17:37;30.40;54.00
50544;DHT22;41176;44.032;20.900;2023-09-08T13:20:03;30.50;54.80
50544;DHT22;41176;44.032;20.900;2023-09-08T13:22:29;30.60;54.00
50544;DHT22;41176;44.032;20.900;2023-09-08T13:24:55;30.80;53.90
50544;DHT22;41176;44.032;20.900;2023-09-08T13:27:21;30.90;53.90
50544;DHT22;41176;44.032;20.900;2023-09-08T13:29:46;30.90;52.80
50544;DHT22;41176;44.032;20.900;2023-09-08T13:32:12;30.90;53.10
50544;DHT22;41176;44.032;20.900;2023-09-08T13:34:38;30.70;53.10
50544;DHT22;41176;44.032;20.900;2023-09-08T13:37:04;30.60;53.10
50544;DHT22;41176;44.032;20.900;2023-09-08T13:39:30;30.40;53.50
50544;DHT22;41176;44.032;20.900;2023-09-08T13:41:58;30.30;53.50
50544;DHT22;41176;44.032;20.900;2023-09-08T13:44:24;30.20;54.00
50544;DHT22;41176;44.032;20.900;2023-09-08T13:46:51;30.00;54.00
50544;DHT22;41176;44.032;20.900;2023-09-08T13:49:17;29.80;54.40
50544;DHT22;41176;44.032;20.900;2023-09-08T13:51:44;29.80;54.70
50544;DHT22;41176;44.032;20.900;2023-09-08T13:54:11;30.00;55.00
50544;DHT22;41176;44.032;20.900;2023-09-08T13:56:41;30.20;54.00
50544;DHT22;41176;44.032;20.900;2023-09-08T13:59:08;30.40;54.40
50544;DHT22;41176;44.032;20.900;2023-09-08T14:01:37;30.60;53.60
50544;DHT22;41176;44.032;20.900;2023-09-08T14:04:04;30.80;53.40
50544;DHT22;41176;44.032;20.900;2023-09-08T14:06:32;30.90;52.60
50544;DHT22;41176;44.032;20.900;2023-09-08T14:08:58;31.00;52.30
50544;DHT22;41176;44.032;20.900;2023-09-08T14:11:24;31.30;52.30
50544;DHT22;41176;44.032;20.900;2023-09-08T14:13:49;31.70;51.60
50544;DHT22;41176;44.032;20.900;2023-09-08T14:16:16;32.00;51.40
50544;DHT22;41176;44.032;20.900;2023-09-08T14:18:42;32.30;50.60
50544;DHT22;41176;44.032;20.900;2023-09-08T14:21:08;32.80;50.30
50544;DHT22;41176;44.032;20.900;2023-09-08T14:23:34;33.30;49.80
50544;DHT22;41176;44.032;20.900;2023-09-08T14:26:00;33.70;48.50
50544;DHT22;41176;44.032;20.900;2023-09-08T14:28:26;33.80;47.50
50544;DHT22;41176;44.032;20.900;2023-09-08T14:30:52;34.20;48.30
50544;DHT22;41176;44.032;20.900;2023-09-08T14:33:19;34.60;47.60
50544;DHT22;41176;44.032;20.900;2023-09-08T14:35:45;34.80;47.30
50544;DHT22;41176;44.032;20.900;2023-09-08T14:38:17;34.40;47.90
50544;DHT22;41176;44.032;20.900;2023-09-08T14:40:42;33.80;47.90
50544;DHT22;41176;44.032;20.900;2023-09-08T14:43:08;33.20;49.00
50544;DHT22;41176;44.032;20.900;2023-09-08T14:45:34;32.60;49.30
50544;DHT22;41176;44.032;20.900;2023-09-08T14:47:59;32.20;49.90
50544;DHT22;41176;44.032;20.900;2023-09-08T14:50:25;32.10;50.30
50544;DHT22;41176;44.032;20.900;2023-09-08T14:52:51;32.00;50.70
50544;DHT22;41176;44.032;20.900;2023-09-08T14:55:16;31.90;51.20
50544;DHT22;41176;44.032;20.900;2023-09-08T14:57:42;31.80;51.10
50544;DHT22;41176;44.032;20.900;2023-09-08T15:00:08;31.90;50.90
50544;DHT22;41176;44.032;20.900;2023-09-08T15:02:35;31.90;50.90
50544;DHT22;41176;44.032;20.900;2023-09-08T15:05:00;31.80;51.20
50544;DHT22;41176;44.032;20.900;2023-09-08T15:07:26;31.70;51.70
50544;DHT22;41176;44.032;20.900;2023-09-08T15:09:52;31.60;51.60
50544;DHT22;41176;44.032;20.900;2023-09-08T15:12:17;31.50;51.10
50544;DHT22;41176;44.032;20.900;2023-09-08T15:14:43;31.40;51.40
50544;DHT22;41176;44.032;20.900;2023-09-08T15:17:11;31.40;51.00
50544;DHT22;41176;44.032;20.900;2023-09-08T15:19:38;31.50;50.60
50544;DHT22;41176;44.032;20.900;2023-09-08T15:22:04;31.60;50.90